createdAt,value
2019-02-04T00:00:09.723Z,9.17
2019-02-04T00:02:36.612Z,9.13
2019-02-04T00:05:05.182Z,9.12
2019-02-04T00:07:32.222Z,9.15
2019-02-04T00:09:58.905Z,9.11
2019-02-04T00:12:25.686Z,9.01
2019-02-04T00:14:52.603Z,8.88
2019-02-04T00:17:19.593Z,8.92
2019-02-04T00:19:46.599Z,9.01
2019-02-04T00:22:13.502Z,8.62
2019-02-04T00:24:40.178Z,8.37
2019-02-04T00:27:07.029Z,8.50
2019-02-04T00:29:35.238Z,8.66
2019-02-04T00:32:02.216Z,8.36
2019-02-04T00:34:29.251Z,8.48
2019-02-04T00:36:56.241Z,8.24
2019-02-04T00:39:23.272Z,8.21
2019-02-04T00:41:50.404Z,8.42
2019-02-04T00:44:17.404Z,8.64
2019-02-04T00:46:52.062Z,8.83
2019-02-04T00:49:12.847Z,8.59
2019-02-04T00:51:39.547Z,8.74
2019-02-04T00:54:06.414Z,8.74
2019-02-04T00:56:33.616Z,8.81
2019-02-04T00:59:00.597Z,8.89
2019-02-04T01:01:27.534Z,8.88
2019-02-04T01:03:54.515Z,8.82
2019-02-04T01:06:21.452Z,8.73
2019-02-04T01:08:48.408Z,8.81
2019-02-04T01:11:15.197Z,8.83
2019-02-04T01:13:42.241Z,8.71
2019-02-04T01:16:09.078Z,8.72
2019-02-04T01:18:36.164Z,8.78
2019-02-04T01:21:02.884Z,8.78
2019-02-04T01:23:29.637Z,8.72
2019-02-04T01:25:56.617Z,8.67
2019-02-04T01:28:23.617Z,8.79
2019-02-04T01:30:50.804Z,8.87
2019-02-04T01:33:17.691Z,8.78
2019-02-04T01:35:44.593Z,8.60
2019-02-04T01:38:12.755Z,8.81
2019-02-04T01:40:39.608Z,9.01
2019-02-04T01:43:06.374Z,8.90
2019-02-04T01:45:33.016Z,8.81
2019-02-04T01:48:00.015Z,8.80
2019-02-04T01:50:26.673Z,8.78
2019-02-04T01:52:53.626Z,8.65
2019-02-04T01:55:20.275Z,8.61
2019-02-04T01:57:47.422Z,8.68
2019-02-04T02:00:14.097Z,8.75
2019-02-04T02:02:41.120Z,8.80
2019-02-04T02:05:07.861Z,8.74
2019-02-04T02:07:34.452Z,8.74
2019-02-04T02:10:01.125Z,8.88
2019-02-04T02:12:27.763Z,8.79
2019-02-04T02:14:54.730Z,8.69
2019-02-04T02:17:26.394Z,8.60
2019-02-04T02:19:50.475Z,8.40
2019-02-04T02:22:17.597Z,8.42
2019-02-04T02:24:44.823Z,8.53
2019-02-04T02:27:11.454Z,8.64
2019-02-04T02:29:38.114Z,8.70
2019-02-04T02:32:04.824Z,8.70
2019-02-04T02:34:31.807Z,8.50
2019-02-04T02:36:58.814Z,8.42
2019-02-04T02:39:25.531Z,8.36
2019-02-04T02:41:52.640Z,8.36
2019-02-04T02:44:20.450Z,8.49
2019-02-04T02:46:48.142Z,8.31
2019-02-04T02:49:16.109Z,8.14
2019-02-04T02:51:42.985Z,8.22
2019-02-04T02:54:10.403Z,8.25
2019-02-04T02:56:37.341Z,8.32
2019-02-04T02:59:04.916Z,8.23
2019-02-04T03:01:32.370Z,8.23
2019-02-04T03:03:59.381Z,8.34
2019-02-04T03:06:27.146Z,8.18
2019-02-04T03:08:54.113Z,8.10
2019-02-04T03:11:21.103Z,8.16
2019-02-04T03:13:49.192Z,8.21
2019-02-04T03:16:17.542Z,8.25
2019-02-04T03:18:45.129Z,8.21
2019-02-04T03:21:12.181Z,8.08
2019-02-04T03:23:39.194Z,8.03
2019-02-04T03:26:05.917Z,7.97
2019-02-04T03:28:32.625Z,8.03
2019-02-04T03:30:59.615Z,8.04
2019-02-04T03:33:26.461Z,8.00
2019-02-04T03:35:53.798Z,7.86
2019-02-04T03:38:20.600Z,7.68
2019-02-04T03:40:48.101Z,7.57
2019-02-04T03:43:14.805Z,7.69
2019-02-04T03:45:41.482Z,7.75
2019-02-04T03:48:09.410Z,7.70
2019-02-04T03:50:36.497Z,7.69
2019-02-04T03:53:03.856Z,7.72
2019-02-04T03:55:30.977Z,7.77
2019-02-04T03:57:58.463Z,7.68
2019-02-04T04:00:26.006Z,7.78
2019-02-04T04:02:52.747Z,7.75
2019-02-04T04:05:19.721Z,7.66
2019-02-04T04:07:47.247Z,7.64
2019-02-04T04:10:14.030Z,7.71
2019-02-04T04:12:41.016Z,7.68
2019-02-04T04:15:08.606Z,7.74
2019-02-04T04:17:36.087Z,7.72
2019-02-04T04:20:03.527Z,7.69
2019-02-04T04:22:30.195Z,7.67
2019-02-04T04:24:56.857Z,7.55
2019-02-04T04:27:23.783Z,7.41
2019-02-04T04:29:50.424Z,7.45
2019-02-04T04:32:17.377Z,7.55
2019-02-04T04:34:44.186Z,7.32
2019-02-04T04:37:11.072Z,7.07
2019-02-04T04:39:40.115Z,7.10
2019-02-04T04:42:07.258Z,7.05
2019-02-04T04:44:34.594Z,7.17
2019-02-04T04:47:01.328Z,7.13
2019-02-04T04:49:30.995Z,6.95
2019-02-04T04:51:59.967Z,6.95
2019-02-04T04:54:26.607Z,6.89
2019-02-04T04:56:56.604Z,7.01
2019-02-04T04:59:23.824Z,7.01
2019-02-04T05:01:50.708Z,7.06
2019-02-04T05:04:17.702Z,6.86
2019-02-04T05:06:44.311Z,7.03
2019-02-04T05:09:11.199Z,7.01
2019-02-04T05:11:37.921Z,6.97
2019-02-04T05:14:04.582Z,6.91
2019-02-04T05:16:31.421Z,6.93
2019-02-04T05:18:58.499Z,6.87
2019-02-04T05:21:25.778Z,6.86
2019-02-04T05:23:52.743Z,6.92
2019-02-04T05:26:19.778Z,6.94
2019-02-04T05:28:47.919Z,6.90
2019-02-04T05:31:14.882Z,6.99
2019-02-04T05:33:41.914Z,7.08
2019-02-04T05:36:08.988Z,6.99
2019-02-04T05:38:35.612Z,7.01
2019-02-04T05:41:02.415Z,7.02
2019-02-04T05:43:29.209Z,6.96
2019-02-04T05:45:55.816Z,6.90
2019-02-04T05:48:22.687Z,6.88
2019-02-04T05:50:49.739Z,6.77
2019-02-04T05:53:18.146Z,6.64
2019-02-04T05:55:44.989Z,6.59
2019-02-04T05:58:11.878Z,6.56
2019-02-04T06:00:38.790Z,6.62
2019-02-04T06:03:05.796Z,6.44
2019-02-04T06:05:32.785Z,6.43
2019-02-04T06:07:59.887Z,6.42
2019-02-04T06:10:26.952Z,6.49
2019-02-04T06:12:53.555Z,6.38
2019-02-04T06:15:20.525Z,6.44
2019-02-04T06:17:47.315Z,6.33
2019-02-04T06:20:14.460Z,6.35
2019-02-04T06:22:41.385Z,6.33
2019-02-04T06:25:08.701Z,6.43
2019-02-04T06:27:35.574Z,6.40
2019-02-04T06:30:02.475Z,6.41
2019-02-04T06:32:29.225Z,6.52
2019-02-04T06:34:55.906Z,6.37
2019-02-04T06:37:23.093Z,6.41
2019-02-04T06:39:49.705Z,6.59
2019-02-04T06:42:16.851Z,6.40
2019-02-04T06:44:43.772Z,6.45
2019-02-04T06:47:10.734Z,6.56
2019-02-04T06:49:37.403Z,6.44
2019-02-04T06:52:04.172Z,6.41
2019-02-04T06:54:30.792Z,6.31
2019-02-04T06:56:57.626Z,6.47
2019-02-04T06:59:24.381Z,6.47
2019-02-04T07:01:51.464Z,6.50
2019-02-04T07:04:18.431Z,6.62
2019-02-04T07:06:45.353Z,6.48
2019-02-04T07:09:12.029Z,6.47
2019-02-04T07:11:38.696Z,6.42
2019-02-04T07:14:05.633Z,6.54
2019-02-04T07:16:32.301Z,6.78
2019-02-04T07:18:58.946Z,6.84
2019-02-04T07:21:25.787Z,7.05
2019-02-04T07:23:54.149Z,7.05
2019-02-04T07:26:21.089Z,7.15
2019-02-04T07:28:47.866Z,7.29
2019-02-04T07:31:14.837Z,7.35
2019-02-04T07:33:41.630Z,7.33
2019-02-04T07:36:08.320Z,7.36
2019-02-04T07:38:35.445Z,7.43
2019-02-04T07:41:02.095Z,7.70
2019-02-04T07:43:29.506Z,7.70
2019-02-04T07:45:56.136Z,7.82
2019-02-04T07:48:22.906Z,8.00
2019-02-04T07:50:49.610Z,8.15
2019-02-04T07:53:16.209Z,8.34
2019-02-04T07:55:43.135Z,8.52
2019-02-04T07:58:10.161Z,8.49
2019-02-04T08:00:37.115Z,8.61
2019-02-04T08:03:03.754Z,8.73
2019-02-04T08:05:30.409Z,8.71
2019-02-04T08:07:57.454Z,8.90
2019-02-04T08:10:25.987Z,8.98
2019-02-04T08:13:00.815Z,9.11
2019-02-04T08:15:21.083Z,9.25
2019-02-04T08:17:47.806Z,9.36
2019-02-04T08:20:14.689Z,9.25
2019-02-04T08:22:41.583Z,9.18
2019-02-04T08:25:08.572Z,9.38
2019-02-04T08:27:35.305Z,9.47
2019-02-04T08:30:02.108Z,9.59
2019-02-04T08:32:29.265Z,9.65
2019-02-04T08:34:55.946Z,9.79
2019-02-04T08:37:22.619Z,9.98
2019-02-04T08:39:49.570Z,10.33
2019-02-04T08:42:16.255Z,10.24
2019-02-04T08:44:42.940Z,10.32
2019-02-04T08:47:09.651Z,10.22
2019-02-04T08:49:36.377Z,10.36
2019-02-04T08:52:04.736Z,10.06
2019-02-04T08:54:31.869Z,10.17
2019-02-04T08:56:58.672Z,10.27
2019-02-04T08:59:25.344Z,10.49
2019-02-04T09:01:52.311Z,10.64
2019-02-04T09:04:19.577Z,10.60
2019-02-04T09:06:46.530Z,10.87
2019-02-04T09:09:13.583Z,10.95
2019-02-04T09:11:40.599Z,10.94
2019-02-04T09:14:07.310Z,10.81
2019-02-04T09:16:35.907Z,10.62
2019-02-04T09:19:02.623Z,10.95
2019-02-04T09:21:29.595Z,10.97
2019-02-04T09:23:56.271Z,11.00
2019-02-04T09:26:23.262Z,11.21
2019-02-04T09:28:49.987Z,10.94
2019-02-04T09:31:17.127Z,10.96
2019-02-04T09:33:43.938Z,11.03
2019-02-04T09:36:10.618Z,11.18
2019-02-04T09:38:37.349Z,11.22
2019-02-04T09:41:04.095Z,11.15
2019-02-04T09:43:31.085Z,11.27
2019-02-04T09:45:57.882Z,11.35
2019-02-04T09:48:24.514Z,11.43
2019-02-04T09:50:51.421Z,11.41
2019-02-04T09:53:18.450Z,11.48
2019-02-04T09:55:45.416Z,11.43
2019-02-04T09:58:12.599Z,11.63
2019-02-04T10:00:39.700Z,11.76
2019-02-04T10:03:07.085Z,11.55
2019-02-04T10:05:33.749Z,11.67
2019-02-04T10:08:00.928Z,11.82
2019-02-04T10:10:27.870Z,11.97
2019-02-04T10:12:54.770Z,11.95
2019-02-04T10:15:21.515Z,12.05
2019-02-04T10:17:48.165Z,12.23
2019-02-04T10:20:14.902Z,12.20
2019-02-04T10:22:42.016Z,12.21
2019-02-04T10:25:09.165Z,11.93
2019-02-04T10:27:37.346Z,12.18
2019-02-04T10:30:04.106Z,11.92
2019-02-04T10:32:31.059Z,12.04
2019-02-04T10:34:58.110Z,12.14
2019-02-04T10:37:25.113Z,12.33
2019-02-04T10:39:51.785Z,12.49
2019-02-04T10:42:18.816Z,12.66
2019-02-04T10:44:47.902Z,12.50
2019-02-04T10:47:14.766Z,12.55
2019-02-04T10:49:42.729Z,12.86
2019-02-04T10:52:09.554Z,12.96
2019-02-04T10:54:37.677Z,13.14
2019-02-04T10:57:07.387Z,13.18
2019-02-04T10:59:37.926Z,13.31
2019-02-04T11:02:04.580Z,13.29
2019-02-04T11:04:31.530Z,13.19
2019-02-04T11:06:58.647Z,13.40
2019-02-04T11:09:25.514Z,13.42
2019-02-04T11:11:52.116Z,13.08
2019-02-04T11:14:18.766Z,13.26
2019-02-04T11:16:45.974Z,13.65
2019-02-04T11:19:12.669Z,13.43
2019-02-04T11:21:39.602Z,13.13
2019-02-04T11:24:07.465Z,13.39
2019-02-04T11:26:34.103Z,13.39
2019-02-04T11:29:01.059Z,13.51
2019-02-04T11:31:27.815Z,13.78
2019-02-04T11:33:54.418Z,13.99
2019-02-04T11:36:21.339Z,13.96
2019-02-04T11:38:48.023Z,14.27
2019-02-04T11:41:15.015Z,13.86
2019-02-04T11:43:41.930Z,14.19
2019-02-04T11:46:08.893Z,14.37
2019-02-04T11:48:35.587Z,14.39
2019-02-04T11:51:09.216Z,14.41
2019-02-04T11:53:33.014Z,14.57
2019-02-04T11:55:59.053Z,14.53
2019-02-04T11:58:26.413Z,14.59
2019-02-04T12:00:53.034Z,14.70
2019-02-04T12:03:19.663Z,14.62
2019-02-04T12:05:46.387Z,14.77
2019-02-04T12:08:13.158Z,15.05
2019-02-04T12:10:40.332Z,15.04
2019-02-04T12:13:08.635Z,15.12
2019-02-04T12:15:35.377Z,15.12
2019-02-04T12:18:03.182Z,14.93
2019-02-04T12:20:29.854Z,15.22
2019-02-04T12:22:56.869Z,15.20
2019-02-04T12:25:23.917Z,15.21
2019-02-04T12:27:51.055Z,15.45
2019-02-04T12:30:17.977Z,15.08
2019-02-04T12:32:44.780Z,15.35
2019-02-04T12:35:11.591Z,15.37
2019-02-04T12:37:39.355Z,15.35
2019-02-04T12:40:06.458Z,15.37
2019-02-04T12:42:37.187Z,14.92
2019-02-04T12:45:05.013Z,14.78
2019-02-04T12:47:32.779Z,15.14
2019-02-04T12:50:02.541Z,15.33
2019-02-04T12:52:29.364Z,15.18
2019-02-04T12:54:56.207Z,15.47
2019-02-04T12:57:23.100Z,15.86
2019-02-04T12:59:49.923Z,15.25
2019-02-04T13:02:17.135Z,14.70
2019-02-04T13:04:43.998Z,14.64
2019-02-04T13:07:11.244Z,14.71
2019-02-04T13:09:39.435Z,15.13
2019-02-04T13:12:09.024Z,15.17
2019-02-04T13:14:34.670Z,15.03
2019-02-04T13:17:01.467Z,15.08
2019-02-04T13:19:28.776Z,15.45
2019-02-04T13:21:55.464Z,15.38
2019-02-04T13:24:22.504Z,15.55
2019-02-04T13:26:49.267Z,15.65
2019-02-04T13:29:16.254Z,15.81
2019-02-04T13:31:42.900Z,15.65
2019-02-04T13:34:09.797Z,15.75
2019-02-04T13:36:36.529Z,15.61
2019-02-04T13:39:03.546Z,15.81
2019-02-04T13:41:30.400Z,15.92
2019-02-04T13:43:57.112Z,16.03
2019-02-04T13:46:24.013Z,16.00
2019-02-04T13:48:51.018Z,15.91
2019-02-04T13:51:17.695Z,16.00
2019-02-04T13:53:44.565Z,15.62
2019-02-04T13:56:11.721Z,15.31
2019-02-04T13:58:40.164Z,15.45
2019-02-04T14:01:06.935Z,15.75
2019-02-04T14:03:33.976Z,15.70
2019-02-04T14:06:01.639Z,15.96
2019-02-04T14:08:28.256Z,15.85
2019-02-04T14:10:55.200Z,15.67
2019-02-04T14:13:22.526Z,15.99
2019-02-04T14:15:49.311Z,16.07
2019-02-04T14:18:16.206Z,16.16
2019-02-04T14:20:42.987Z,15.89
2019-02-04T14:23:10.714Z,15.50
2019-02-04T14:25:37.465Z,15.24
2019-02-04T14:28:04.539Z,15.05
2019-02-04T14:30:32.281Z,14.67
2019-02-04T14:32:58.931Z,14.39
2019-02-04T14:35:25.663Z,14.59
2019-02-04T14:37:52.717Z,14.64
2019-02-04T14:40:20.788Z,14.65
2019-02-04T14:42:53.377Z,14.55
2019-02-04T14:45:22.369Z,14.30
2019-02-04T14:48:01.841Z,14.31
2019-02-04T14:50:23.686Z,14.33
2019-02-04T14:52:50.119Z,14.04
2019-02-04T14:55:17.263Z,13.70
2019-02-04T14:57:45.093Z,13.57
2019-02-04T15:00:13.937Z,13.29
2019-02-04T15:02:43.749Z,13.11
2019-02-04T15:05:10.513Z,12.63
2019-02-04T15:07:40.452Z,12.53
2019-02-04T15:10:12.215Z,12.19
2019-02-04T15:12:40.760Z,12.12
2019-02-04T15:15:07.630Z,12.15
2019-02-04T15:17:35.440Z,11.98
2019-02-04T15:20:06.448Z,12.10
2019-02-04T15:22:33.814Z,12.05
2019-02-04T15:25:03.717Z,12.03
2019-02-04T15:27:33.127Z,11.78
2019-02-04T15:30:06.016Z,11.52
2019-02-04T15:32:34.641Z,11.48
2019-02-04T15:35:04.930Z,11.52
2019-02-04T15:37:32.275Z,11.51
2019-02-04T15:39:58.994Z,11.40
2019-02-04T15:42:32.419Z,11.12
2019-02-04T15:44:54.862Z,10.96
2019-02-04T15:47:24.236Z,10.85
2019-02-04T15:49:53.627Z,11.00
2019-02-04T15:52:23.196Z,10.96
2019-02-04T15:54:51.246Z,11.12
2019-02-04T15:57:18.515Z,11.20
2019-02-04T15:59:49.161Z,11.08
2019-02-04T16:02:23.159Z,10.92
2019-02-04T16:04:51.726Z,10.90
2019-02-04T16:07:23.749Z,10.83
2019-02-04T16:09:55.131Z,10.92
2019-02-04T16:12:25.120Z,10.93
2019-02-04T16:14:54.874Z,10.85
2019-02-04T16:17:21.446Z,10.83
2019-02-04T16:19:55.205Z,10.77
2019-02-04T16:22:25.844Z,10.78
2019-02-04T16:24:53.966Z,10.74
2019-02-04T16:27:21.627Z,10.78
2019-02-04T16:29:49.651Z,10.73
2019-02-04T16:32:17.945Z,10.64
2019-02-04T16:34:50.133Z,10.61
2019-02-04T16:37:17.820Z,10.57
2019-02-04T16:39:44.830Z,10.59
2019-02-04T16:42:11.467Z,10.45
2019-02-04T16:44:38.159Z,10.37
2019-02-04T16:47:04.928Z,10.24
2019-02-04T16:49:31.591Z,10.06
2019-02-04T16:52:00.876Z,9.87
2019-02-04T16:54:27.865Z,9.67
2019-02-04T16:56:54.616Z,9.69
2019-02-04T16:59:21.939Z,9.74
2019-02-04T17:01:48.838Z,9.51
2019-02-04T17:04:15.695Z,9.34
2019-02-04T17:06:42.582Z,9.44
2019-02-04T17:09:09.207Z,9.47
2019-02-04T17:11:35.875Z,9.38
2019-02-04T17:14:02.938Z,9.40
2019-02-04T17:16:29.861Z,9.39
2019-02-04T17:18:56.493Z,9.40
2019-02-04T17:21:24.144Z,9.27
2019-02-04T17:23:50.808Z,9.34
2019-02-04T17:26:18.787Z,9.49
2019-02-04T17:28:45.557Z,9.54
2019-02-04T17:31:12.518Z,9.62
2019-02-04T17:33:39.391Z,9.65
2019-02-04T17:36:06.288Z,9.72
2019-02-04T17:38:32.894Z,9.54
2019-02-04T17:40:59.813Z,9.49
2019-02-04T17:43:27.073Z,9.45
2019-02-04T17:45:53.764Z,9.42
2019-02-04T17:48:21.167Z,9.28
2019-02-04T17:50:49.149Z,9.18
2019-02-04T17:53:16.657Z,9.20
2019-02-04T17:55:44.490Z,9.18
2019-02-04T17:58:13.640Z,9.20
2019-02-04T18:00:41.704Z,9.01
2019-02-04T18:05:52.929Z,8.92
2019-02-04T18:08:19.584Z,8.76
2019-02-04T18:10:46.197Z,8.80
2019-02-04T18:13:13.057Z,8.96
2019-02-04T18:15:39.655Z,9.06
2019-02-04T18:18:06.611Z,9.19
2019-02-04T18:20:33.314Z,9.02
2019-02-04T18:23:00.236Z,8.91
2019-02-04T18:25:27.461Z,8.91
2019-02-04T18:27:54.235Z,8.97
2019-02-04T18:30:21.678Z,8.97
2019-02-04T18:32:49.761Z,8.89
2019-02-04T18:35:16.833Z,8.82
2019-02-04T18:37:44.474Z,8.73
2019-02-04T18:40:14.781Z,8.60
2019-02-04T18:42:44.047Z,8.49
2019-02-04T18:45:14.946Z,8.21
2019-02-04T18:47:41.554Z,8.12
2019-02-04T18:50:15.128Z,8.32
2019-02-04T18:52:41.999Z,8.50
2019-02-04T18:55:09.662Z,8.37
2019-02-04T18:57:37.977Z,8.44
2019-02-04T19:00:22.705Z,8.58
2019-02-04T19:02:50.028Z,8.38
2019-02-04T19:05:16.959Z,8.51
2019-02-04T19:07:43.753Z,8.72
2019-02-04T19:10:11.004Z,8.76
2019-02-04T19:12:37.817Z,8.72
2019-02-04T19:15:07.600Z,8.48
2019-02-04T19:17:35.280Z,8.23
2019-02-04T19:20:08.328Z,8.18
2019-02-04T19:22:38.117Z,8.14
2019-02-04T19:25:08.940Z,8.00
2019-02-04T19:27:36.920Z,7.99
2019-02-04T19:30:03.982Z,8.05
2019-02-04T19:32:31.598Z,8.01
2019-02-04T19:34:59.371Z,8.25
2019-02-04T19:37:27.237Z,8.28
2019-02-04T19:39:59.668Z,8.38
2019-02-04T19:42:27.326Z,8.56
2019-02-04T19:44:55.531Z,8.71
2019-02-04T19:47:22.447Z,8.75
2019-02-04T19:49:53.236Z,8.74
2019-02-04T19:52:20.190Z,8.67
2019-02-04T19:54:47.322Z,8.56
2019-02-04T19:57:15.295Z,8.72
2019-02-04T19:59:54.332Z,8.89
2019-02-04T20:02:20.923Z,9.02
2019-02-04T20:04:49.821Z,9.02
2019-02-04T20:07:16.561Z,9.02
2019-02-04T20:09:43.544Z,9.05
2019-02-04T20:12:12.011Z,9.12
2019-02-04T20:14:46.412Z,9.04
2019-02-04T20:17:11.219Z,9.21
2019-02-04T20:19:59.874Z,9.07
2019-02-04T20:22:29.534Z,8.98
2019-02-04T20:24:59.598Z,8.99
2019-02-04T20:27:31.009Z,9.17
2019-02-04T20:29:58.641Z,8.98
2019-02-04T20:32:27.590Z,8.96
2019-02-04T20:34:55.118Z,9.16
2019-02-04T20:37:22.035Z,8.92
2019-02-04T20:39:48.981Z,9.15
2019-02-04T20:42:16.464Z,9.09
2019-02-04T20:44:43.163Z,9.00
2019-02-04T20:47:10.065Z,8.96
2019-02-04T20:49:36.644Z,9.13
2019-02-04T20:52:03.277Z,9.17
2019-02-04T20:54:31.387Z,9.29
2019-02-04T20:56:58.344Z,9.12
2019-02-04T20:59:26.357Z,8.95
2019-02-04T21:01:52.983Z,9.14
2019-02-04T21:04:19.607Z,9.26
2019-02-04T21:06:55.774Z,9.26
2019-02-04T21:09:15.789Z,9.21
2019-02-04T21:11:42.935Z,9.18
2019-02-04T21:14:09.707Z,9.03
2019-02-04T21:16:36.448Z,8.82
2019-02-04T21:19:04.627Z,8.73
2019-02-04T21:21:31.449Z,8.62
2019-02-04T21:23:58.383Z,8.54
2019-02-04T21:26:25.016Z,8.67
2019-02-04T21:28:51.894Z,8.69
2019-02-04T21:31:18.705Z,8.55
2019-02-04T21:33:45.656Z,8.50
2019-02-04T21:36:12.235Z,8.54
2019-02-04T21:38:39.146Z,8.59
2019-02-04T21:41:05.866Z,8.46
2019-02-04T21:43:32.492Z,8.45
2019-02-04T21:45:59.214Z,8.56
2019-02-04T21:48:26.027Z,8.64
2019-02-04T21:50:53.048Z,8.54
2019-02-04T21:53:19.952Z,8.50
2019-02-04T21:55:46.587Z,8.62
2019-02-04T21:58:13.485Z,8.60
2019-02-04T22:00:40.429Z,8.71
2019-02-04T22:03:07.434Z,8.46
2019-02-04T22:05:35.730Z,8.30
2019-02-04T22:08:02.860Z,8.33
2019-02-04T22:10:29.492Z,8.27
2019-02-04T22:12:56.383Z,8.33
2019-02-04T22:15:23.061Z,8.34
2019-02-04T22:17:49.708Z,8.28
2019-02-04T22:20:16.727Z,8.30
2019-02-04T22:22:43.787Z,8.15
2019-02-04T22:25:19.490Z,8.26
2019-02-04T22:27:39.185Z,8.26
2019-02-04T22:30:06.258Z,8.09
2019-02-04T22:32:33.219Z,8.15
2019-02-04T22:35:00.316Z,8.31
2019-02-04T22:37:27.105Z,8.23
2019-02-04T22:39:54.008Z,8.19
2019-02-04T22:42:21.025Z,8.07
2019-02-04T22:44:47.730Z,8.19
2019-02-04T22:47:14.634Z,8.23
2019-02-04T22:49:42.368Z,8.23
2019-02-04T22:52:09.229Z,8.41
2019-02-04T22:54:36.594Z,8.32
2019-02-04T22:57:03.255Z,8.32
2019-02-04T22:59:30.497Z,8.22
2019-02-04T23:01:57.313Z,8.28
2019-02-04T23:04:24.479Z,8.26
2019-02-04T23:06:51.478Z,8.22
2019-02-04T23:09:18.345Z,8.15
2019-02-04T23:11:45.053Z,8.13
2019-02-04T23:14:11.781Z,8.08
2019-02-04T23:16:38.464Z,8.15
2019-02-04T23:19:06.978Z,8.18
2019-02-04T23:21:33.899Z,8.18
2019-02-04T23:24:00.751Z,8.07
2019-02-04T23:26:27.616Z,8.04
2019-02-04T23:28:54.666Z,8.05
2019-02-04T23:31:21.675Z,8.10
2019-02-04T23:33:49.005Z,8.05
2019-02-04T23:36:15.663Z,8.04
2019-02-04T23:38:42.842Z,7.85
2019-02-04T23:41:10.006Z,7.86
2019-02-04T23:43:37.189Z,7.90
2019-02-04T23:46:03.980Z,7.92
2019-02-04T23:48:30.870Z,7.98
2019-02-04T23:50:57.787Z,8.12
2019-02-04T23:53:24.447Z,7.98
2019-02-04T23:55:54.690Z,8.01
2019-02-04T23:58:19.544Z,8.04
